Time;durP1;ratioP1;P1;durP2;ratioP2;P2;SDS_P1;SDS_P2;PMS_P1;PMS_P2;Temp;Humidity;BMP_temperature;BMP_pressure;BME280_temperature;BME280_humidity;BME280_pressure;Samples;Min_cycle;Max_cycle;Signal;HPM_P1;HPM_P2
2022/09/21 00:01:59;;;;;;;2.23;1.20;;;10.70;99.90;;;;;;5111673;28;20203;-49
2022/09/21 00:04:26;;;;;;;1.47;1.37;;;10.70;99.90;;;;;;5112813;28;20285;-48
2022/09/21 00:06:54;;;;;;;0.93;0.93;;;10.70;99.90;;;;;;5112969;28;20199;-49
2022/09/21 00:09:21;;;;;;;1.57;1.37;;;10.60;99.90;;;;;;5100021;28;20634;-49
2022/09/21 00:11:48;;;;;;;1.20;1.10;;;10.60;99.90;;;;;;5111062;28;20624;-48
2022/09/21 00:14:15;;;;;;;1.73;1.23;;;10.70;99.90;;;;;;5112562;28;20259;-48
2022/09/21 00:16:43;;;;;;;2.37;0.90;;;10.70;99.90;;;;;;5112736;28;20263;-49
2022/09/21 00:19:10;;;;;;;2.77;1.13;;;10.70;99.90;;;;;;5111314;28;20226;-49
2022/09/21 00:21:38;;;;;;;3.63;1.17;;;10.70;99.90;;;;;;5109800;28;20259;-49
2022/09/21 00:24:07;;;;;;;1.00;0.90;;;10.70;99.90;;;;;;5100925;28;20661;-49
2022/09/21 00:26:34;;;;;;;2.63;1.70;;;10.70;99.90;;;;;;5112364;28;20251;-48
2022/09/21 00:29:03;;;;;;;3.53;1.50;;;10.60;99.90;;;;;;5112662;28;20219;-49
2022/09/21 00:31:31;;;;;;;2.70;1.17;;;10.50;99.90;;;;;;5112247;28;20206;-49
2022/09/21 00:33:59;;;;;;;1.33;1.10;;;10.50;99.90;;;;;;5101567;28;20210;-49
2022/09/21 00:36:26;;;;;;;5.33;1.70;;;10.40;99.90;;;;;;5107229;28;20240;-50
2022/09/21 00:38:55;;;;;;;2.63;1.20;;;10.40;99.90;;;;;;5107933;28;20644;-49
2022/09/21 00:41:24;;;;;;;1.33;0.93;;;10.40;99.90;;;;;;5112549;28;20632;-48
2022/09/21 00:44:25;;;;;;;1.10;1.03;;;10.40;99.90;;;;;;5105610;28;20247;-48
2022/09/21 00:46:55;;;;;;;2.87;1.53;;;10.40;99.90;;;;;;5110013;28;20640;-50
2022/09/21 00:49:24;;;;;;;1.53;1.43;;;10.40;99.90;;;;;;5107293;28;20223;-48
2022/09/21 00:51:52;;;;;;;1.10;1.03;;;10.40;99.90;;;;;;5112306;28;20243;-49
2022/09/21 00:54:23;;;;;;;2.10;1.43;;;10.40;99.90;;;;;;5106206;28;20293;-48
2022/09/21 00:56:52;;;;;;;1.23;1.13;;;10.30;99.90;;;;;;5109190;28;20206;-48
2022/09/21 00:59:20;;;;;;;2.40;1.47;;;10.30;99.90;;;;;;5111892;28;20207;-50
2022/09/21 01:01:47;;;;;;;1.80;1.70;;;10.20;99.90;;;;;;5111924;28;20256;-48
2022/09/21 01:04:17;;;;;;;2.53;1.23;;;10.20;99.90;;;;;;5111695;28;20598;-49
2022/09/21 01:06:46;;;;;;;1.93;1.83;;;10.20;99.90;;;;;;5096005;28;20591;-48
2022/09/21 01:09:14;;;;;;;1.43;1.23;;;10.20;99.90;;;;;;5099453;28;20305;-49
2022/09/21 01:11:53;;;;;;;3.10;1.33;;;10.20;99.90;;;;;;5108497;28;20285;-49
2022/09/21 01:14:44;;;;;;;3.43;2.00;;;10.10;99.90;;;;;;5104681;28;20217;-48
2022/09/21 01:17:18;;;;;;;1.63;1.50;;;10.00;99.90;;;;;;5103668;28;20621;-48
2022/09/21 01:20:32;;;;;;;3.47;1.97;;;10.00;99.90;;;;;;5111736;28;20197;-50
2022/09/21 01:23:16;;;;;;;2.20;2.00;;;9.90;99.90;;;;;;5080608;28;20740;-48
2022/09/21 01:25:57;;;;;;;2.13;2.00;;;9.80;99.90;;;;;;5109987;28;20694;-50
2022/09/21 01:28:39;;;;;;;1.53;1.30;;;9.70;99.90;;;;;;5111421;28;20212;-50
2022/09/21 01:31:12;;;;;;;1.83;1.67;;;9.60;99.90;;;;;;5111692;28;20195;-49
2022/09/21 01:33:45;;;;;;;1.67;1.27;;;9.60;99.90;;;;;;5103966;28;20231;-50
2022/09/21 01:36:17;;;;;;;3.27;1.30;;;9.50;99.90;;;;;;5108544;28;20260;-49
2022/09/21 01:38:48;;;;;;;3.57;1.27;;;9.50;99.90;;;;;;5102843;28;20219;-49
2022/09/21 01:41:18;;;;;;;1.67;1.37;;;9.50;99.90;;;;;;5107212;28;20664;-49
2022/09/21 01:43:50;;;;;;;2.90;1.63;;;9.50;99.90;;;;;;5112220;28;20274;-48
2022/09/21 01:46:22;;;;;;;2.10;1.50;;;9.50;99.90;;;;;;5111369;28;20335;-48
2022/09/21 01:48:54;;;;;;;2.20;1.63;;;9.50;99.90;;;;;;5113140;28;20216;-48
2022/09/21 01:51:26;;;;;;;1.30;1.20;;;9.50;99.90;;;;;;5106303;28;20214;-48
2022/09/21 01:53:56;;;;;;;1.63;1.10;;;9.40;99.90;;;;;;5102929;28;20203;-49
2022/09/21 01:56:27;;;;;;;4.60;1.50;;;9.30;99.90;;;;;;5108101;28;20232;-48
2022/09/21 01:59:03;;;;;;;2.60;1.57;;;9.20;99.90;;;;;;5113857;28;20262;-48
2022/09/21 02:01:37;;;;;;;1.73;1.50;;;9.20;99.90;;;;;;5114902;28;20210;-49
2022/09/21 02:04:09;;;;;;;1.53;1.50;;;9.10;99.90;;;;;;5111522;28;20205;-49
2022/09/21 02:06:38;;;;;;;1.93;1.60;;;9.10;99.90;;;;;;5103698;28;20199;-48
2022/09/21 02:09:05;;;;;;;1.60;1.50;;;9.10;99.90;;;;;;5107175;28;20717;-49
2022/09/21 02:11:32;;;;;;;2.27;1.50;;;9.00;99.90;;;;;;5107997;28;20206;-47
2022/09/21 02:13:59;;;;;;;2.00;1.10;;;8.90;99.90;;;;;;5113995;28;20229;-48
2022/09/21 02:16:36;;;;;;;1.90;1.80;;;8.90;99.90;;;;;;5112049;28;20217;-48
2022/09/21 02:19:11;;;;;;;3.57;1.60;;;8.80;99.90;;;;;;5106181;28;20316;-49
2022/09/21 02:21:50;;;;;;;1.90;1.80;;;8.70;99.90;;;;;;5106468;28;20233;-49
2022/09/21 02:24:26;;;;;;;1.33;1.33;;;8.70;99.90;;;;;;5112549;28;20659;-49
2022/09/21 02:27:02;;;;;;;1.87;1.77;;;8.60;99.90;;;;;;5114412;28;20208;-48
2022/09/21 02:29:41;;;;;;;1.67;1.63;;;8.60;99.90;;;;;;5106336;28;20227;-48
2022/09/21 02:32:15;;;;;;;1.40;1.30;;;8.60;99.90;;;;;;5114297;28;20198;-48
2022/09/21 02:34:46;;;;;;;3.67;1.67;;;8.50;99.90;;;;;;5111138;28;20593;-48
2022/09/21 02:37:22;;;;;;;2.27;2.07;;;8.50;99.90;;;;;;5110477;28;20201;-48
2022/09/21 02:39:58;;;;;;;2.10;1.67;;;8.40;99.90;;;;;;5114121;28;20193;-48
2022/09/21 02:42:29;;;;;;;2.13;2.03;;;8.40;99.90;;;;;;5110658;28;20198;-48
2022/09/21 02:45:04;;;;;;;2.73;1.83;;;8.40;99.90;;;;;;5108119;28;20226;-48
2022/09/21 02:47:38;;;;;;;1.50;1.40;;;8.30;99.90;;;;;;5112336;28;20202;-49
2022/09/21 02:50:11;;;;;;;3.23;2.67;;;8.30;99.90;;;;;;5102351;28;20217;-48
2022/09/21 02:52:41;;;;;;;2.53;1.73;;;8.30;99.90;;;;;;5100209;28;20206;-48
2022/09/21 02:55:09;;;;;;;1.53;1.43;;;8.30;99.90;;;;;;5102633;28;20201;-49
2022/09/21 02:57:37;;;;;;;1.67;1.57;;;8.30;99.90;;;;;;5113485;28;20713;-48
2022/09/21 03:00:05;;;;;;;1.47;1.47;;;8.30;99.90;;;;;;5108771;28;20211;-49
2022/09/21 03:02:39;;;;;;;1.57;1.47;;;8.30;99.90;;;;;;5110910;28;20200;-49
2022/09/21 03:05:08;;;;;;;1.70;1.60;;;8.20;99.90;;;;;;5100269;28;20194;-49
2022/09/21 03:07:35;;;;;;;1.37;1.27;;;8.20;99.90;;;;;;5106757;28;20217;-49
2022/09/21 03:10:02;;;;;;;1.50;1.33;;;8.20;99.90;;;;;;5101150;28;20213;-47
2022/09/21 03:12:31;;;;;;;2.70;1.90;;;8.20;99.90;;;;;;5111294;27;20191;-48
2022/09/21 03:14:58;;;;;;;1.90;1.90;;;8.10;99.90;;;;;;5110146;28;20197;-49
2022/09/21 03:17:26;;;;;;;2.77;1.60;;;8.10;99.90;;;;;;5106564;28;20203;-49
2022/09/21 03:19:55;;;;;;;1.47;1.47;;;8.00;99.90;;;;;;5112017;28;20203;-48
2022/09/21 03:22:22;;;;;;;4.10;1.63;;;8.00;99.90;;;;;;5113136;28;20188;-48
2022/09/21 03:24:50;;;;;;;1.57;1.47;;;8.00;99.90;;;;;;5113130;27;20231;-48
2022/09/21 03:27:21;;;;;;;2.37;1.50;;;8.00;99.90;;;;;;5113161;28;20205;-48
2022/09/21 03:29:48;;;;;;;1.90;1.70;;;7.90;99.90;;;;;;5112375;28;20599;-50
2022/09/21 03:32:16;;;;;;;2.20;2.03;;;7.90;99.90;;;;;;5112284;28;20198;-48
2022/09/21 03:34:43;;;;;;;1.80;1.70;;;7.90;99.90;;;;;;5109933;28;20208;-48
2022/09/21 03:37:11;;;;;;;3.53;1.93;;;7.90;99.90;;;;;;5112955;28;20205;-48
2022/09/21 03:39:38;;;;;;;4.63;2.10;;;7.80;99.90;;;;;;5111407;28;20217;-49
2022/09/21 03:42:06;;;;;;;2.00;1.90;;;7.80;99.90;;;;;;5101972;28;20194;-48
2022/09/21 03:44:33;;;;;;;3.90;2.30;;;7.80;99.90;;;;;;5110834;28;20665;-49
2022/09/21 03:47:00;;;;;;;3.97;2.90;;;7.80;99.90;;;;;;5107340;28;20198;-48
2022/09/21 03:49:28;;;;;;;2.43;2.23;;;7.70;99.90;;;;;;5106181;28;20761;-49
2022/09/21 03:51:55;;;;;;;3.00;2.00;;;7.70;99.90;;;;;;5111828;28;20620;-48
2022/09/21 03:54:24;;;;;;;3.80;2.80;;;7.70;99.90;;;;;;5110208;28;20333;-48
2022/09/21 03:56:51;;;;;;;2.10;2.00;;;7.60;99.90;;;;;;5111043;28;20209;-48
2022/09/21 03:59:19;;;;;;;3.70;2.07;;;7.60;99.90;;;;;;5111694;28;20245;-48
2022/09/21 04:01:46;;;;;;;2.30;2.10;;;7.50;99.90;;;;;;5112359;28;20204;-47
2022/09/21 04:04:13;;;;;;;1.50;1.40;;;7.50;99.90;;;;;;5111497;28;20200;-48
2022/09/21 04:06:40;;;;;;;4.93;1.80;;;7.50;99.90;;;;;;5108582;28;20297;-49
2022/09/21 04:09:07;;;;;;;1.77;1.67;;;7.50;99.90;;;;;;5109031;28;20221;-49
2022/09/21 04:11:35;;;;;;;1.80;1.80;;;7.40;99.90;;;;;;5106613;28;20221;-49
2022/09/21 04:14:02;;;;;;;1.50;1.50;;;7.30;99.90;;;;;;5112214;28;20203;-48
2022/09/21 04:16:30;;;;;;;2.13;2.00;;;7.30;99.90;;;;;;5107508;28;20204;-47
2022/09/21 04:18:57;;;;;;;1.60;1.50;;;7.30;99.90;;;;;;5109668;28;20653;-48
2022/09/21 04:21:24;;;;;;;2.60;2.13;;;7.30;99.90;;;;;;5106927;28;20192;-48
2022/09/21 04:23:51;;;;;;;2.10;2.00;;;7.30;99.90;;;;;;5100210;28;20596;-48
2022/09/21 04:26:23;;;;;;;2.07;1.97;;;7.30;99.90;;;;;;5111817;27;20197;-48
2022/09/21 04:28:52;;;;;;;2.93;2.67;;;7.30;99.90;;;;;;5112024;28;20213;-50
2022/09/21 04:31:19;;;;;;;4.40;2.67;;;7.30;99.90;;;;;;5112265;28;20221;-48
2022/09/21 04:33:49;;;;;;;3.00;2.90;;;7.40;99.90;;;;;;5102447;28;20730;-49
2022/09/21 04:36:16;;;;;;;3.10;2.80;;;7.30;99.90;;;;;;5106477;28;20198;-50
2022/09/21 04:38:43;;;;;;;3.10;3.00;;;7.30;99.90;;;;;;5104946;28;20276;-49
2022/09/21 04:41:11;;;;;;;3.13;3.03;;;7.30;99.90;;;;;;5106821;28;20196;-49
2022/09/21 04:43:39;;;;;;;4.17;3.20;;;7.30;99.90;;;;;;5100430;28;20256;-50
2022/09/21 04:46:09;;;;;;;5.10;3.20;;;7.30;99.90;;;;;;5104447;28;20220;-49
2022/09/21 04:48:36;;;;;;;2.90;2.40;;;7.30;99.90;;;;;;5110769;28;20277;-49
2022/09/21 04:51:03;;;;;;;6.93;3.83;;;7.30;99.90;;;;;;5108860;28;20207;-49
2022/09/21 04:53:31;;;;;;;3.30;2.97;;;7.40;99.90;;;;;;5108617;28;20633;-49
2022/09/21 04:55:58;;;;;;;3.23;3.00;;;7.30;99.90;;;;;;5109127;28;20209;-48
2022/09/21 04:58:26;;;;;;;3.00;2.80;;;7.30;99.90;;;;;;5108762;28;20221;-49
2022/09/21 05:00:55;;;;;;;3.77;3.40;;;7.30;99.90;;;;;;5110551;28;20194;-48
2022/09/21 05:03:27;;;;;;;19.00;10.67;;;7.30;99.90;;;;;;5098925;28;20842;-48
2022/09/21 05:05:56;;;;;;;12.43;7.47;;;7.30;99.90;;;;;;5110152;28;20193;-49
2022/09/21 05:11:14;;;;;;;10.20;5.93;;;7.20;99.90;;;;;;5095990;28;20226;-50
2022/09/21 05:13:42;;;;;;;7.97;5.80;;;7.20;99.90;;;;;;5106478;28;20577;-48
2022/09/21 05:16:10;;;;;;;5.60;4.20;;;7.20;99.90;;;;;;5106529;28;20204;-48
2022/09/21 05:18:39;;;;;;;7.07;3.70;;;7.30;99.90;;;;;;5106081;28;20319;-48
2022/09/21 05:21:06;;;;;;;6.50;4.73;;;7.20;99.90;;;;;;5110280;28;20198;-48
2022/09/21 05:23:34;;;;;;;7.53;4.20;;;7.20;99.90;;;;;;5111697;28;20305;-48
2022/09/21 05:26:01;;;;;;;3.87;3.67;;;7.20;99.90;;;;;;5108424;28;20200;-48
2022/09/21 05:28:30;;;;;;;6.00;4.10;;;7.20;99.90;;;;;;5109731;28;20285;-49
2022/09/21 05:31:02;;;;;;;6.87;5.00;;;7.20;99.90;;;;;;5113779;28;20213;-47
2022/09/21 05:33:32;;;;;;;7.67;6.40;;;7.10;99.90;;;;;;5111291;28;20201;-48
2022/09/21 05:36:09;;;;;;;12.57;7.97;;;7.10;99.90;;;;;;5111305;28;20214;-48
2022/09/21 05:38:36;;;;;;;11.77;8.00;;;7.10;99.90;;;;;;5111365;28;20312;-48
2022/09/21 05:41:04;;;;;;;8.03;6.23;;;7.20;99.90;;;;;;5107637;28;20226;-49
2022/09/21 05:43:32;;;;;;;9.17;6.47;;;7.20;99.90;;;;;;5105689;28;20236;-48
2022/09/21 05:46:05;;;;;;;5.73;5.23;;;7.30;99.90;;;;;;5115057;28;20206;-49
2022/09/21 05:48:40;;;;;;;7.87;5.40;;;7.40;99.90;;;;;;5110810;28;20220;-48
2022/09/21 05:51:16;;;;;;;8.70;5.80;;;7.60;99.90;;;;;;5102267;28;20712;-48
2022/09/21 05:53:55;;;;;;;9.17;6.97;;;7.70;99.90;;;;;;5113877;28;20229;-48
2022/09/21 05:56:37;;;;;;;13.67;8.10;;;7.80;99.90;;;;;;5104142;28;20277;-49
2022/09/21 05:59:15;;;;;;;9.57;7.93;;;7.80;99.90;;;;;;5105907;28;20224;-47
2022/09/21 06:01:54;;;;;;;9.90;6.27;;;8.00;99.90;;;;;;5108453;28;20193;-48
2022/09/21 06:04:22;;;;;;;6.03;5.50;;;8.30;99.90;;;;;;5111783;28;20670;-49
2022/09/21 06:06:51;;;;;;;4.40;4.00;;;8.70;99.90;;;;;;5110040;28;20213;-49
2022/09/21 06:09:19;;;;;;;4.80;3.70;;;9.30;99.90;;;;;;5113328;28;20245;-48
2022/09/21 06:11:46;;;;;;;8.17;6.07;;;9.90;99.90;;;;;;5111331;28;20699;-48
2022/09/21 06:14:13;;;;;;;6.17;5.20;;;10.50;99.90;;;;;;5104866;28;20206;-49
2022/09/21 06:16:41;;;;;;;5.90;5.40;;;11.00;99.90;;;;;;5111524;28;20732;-48
2022/09/21 06:19:11;;;;;;;7.27;5.83;;;11.30;99.90;;;;;;5108742;28;20230;-49
2022/09/21 06:21:38;;;;;;;4.50;4.20;;;11.40;99.90;;;;;;5109482;28;20197;-49
2022/09/21 06:24:07;;;;;;;4.20;4.00;;;11.40;99.90;;;;;;5105589;28;20704;-49
2022/09/21 06:26:34;;;;;;;8.47;4.47;;;11.20;99.90;;;;;;5113078;27;20241;-49
2022/09/21 06:29:01;;;;;;;5.27;4.47;;;10.90;99.90;;;;;;5113179;28;20270;-48
2022/09/21 06:31:29;;;;;;;5.00;4.50;;;10.70;99.90;;;;;;5113366;28;20223;-48
2022/09/21 06:33:56;;;;;;;4.50;4.17;;;10.50;99.90;;;;;;5111609;28;20675;-48
2022/09/21 06:36:23;;;;;;;3.20;3.00;;;10.30;99.90;;;;;;5109559;28;20294;-48
2022/09/21 06:38:50;;;;;;;3.63;3.43;;;10.20;99.90;;;;;;5106963;28;20267;-49
2022/09/21 06:41:18;;;;;;;3.93;3.43;;;10.20;99.90;;;;;;5105951;28;20194;-48
2022/09/21 06:43:46;;;;;;;4.43;3.73;;;10.10;99.90;;;;;;5111653;28;20209;-49
2022/09/21 06:46:13;;;;;;;4.97;4.13;;;10.20;99.90;;;;;;5109142;28;20569;-48
2022/09/21 06:48:40;;;;;;;4.57;3.47;;;10.20;99.90;;;;;;5108994;28;20217;-49
2022/09/21 06:51:07;;;;;;;5.27;3.60;;;10.20;99.90;;;;;;5105181;28;20208;-48
2022/09/21 06:53:34;;;;;;;3.73;3.43;;;10.30;99.90;;;;;;5111413;28;20203;-48
2022/09/21 06:56:03;;;;;;;2.77;2.67;;;10.20;99.90;;;;;;5108232;28;20206;-49
2022/09/21 06:58:33;;;;;;;3.60;2.80;;;10.30;99.90;;;;;;5105605;28;20363;-50
2022/09/21 07:01:05;;;;;;;3.40;2.83;;;10.30;99.90;;;;;;5110689;28;20199;-48
2022/09/21 07:03:32;;;;;;;2.80;2.40;;;10.40;99.90;;;;;;5105174;28;20202;-49
2022/09/21 07:05:59;;;;;;;3.67;1.90;;;10.40;99.90;;;;;;5105439;28;20203;-49
2022/09/21 07:08:30;;;;;;;2.53;2.23;;;10.40;99.90;;;;;;5110346;27;20215;-48
2022/09/21 07:10:58;;;;;;;2.27;1.60;;;10.40;99.90;;;;;;5111717;28;20695;-49
2022/09/21 07:13:28;;;;;;;2.77;2.57;;;10.50;99.90;;;;;;5111078;28;20190;-48
2022/09/21 07:15:56;;;;;;;3.20;2.20;;;10.50;99.90;;;;;;5104665;28;20671;-49
2022/09/21 07:18:24;;;;;;;3.10;2.80;;;10.60;99.90;;;;;;5106001;28;20280;-48
2022/09/21 07:20:51;;;;;;;3.73;2.17;;;10.70;99.90;;;;;;5104675;28;20683;-48
2022/09/21 07:23:21;;;;;;;3.03;2.20;;;10.80;99.90;;;;;;5113227;28;20626;-50
2022/09/21 07:25:49;;;;;;;4.67;2.77;;;10.90;99.90;;;;;;5106103;28;20251;-49
2022/09/21 07:28:16;;;;;;;2.83;2.63;;;10.90;99.90;;;;;;5103777;28;20223;-48
2022/09/21 07:30:43;;;;;;;2.20;2.00;;;11.00;99.90;;;;;;5104997;28;20202;-49
2022/09/21 07:33:12;;;;;;;2.10;2.00;;;11.10;99.90;;;;;;5112775;28;20733;-48
2022/09/21 07:35:39;;;;;;;2.20;2.10;;;11.30;99.90;;;;;;5105436;28;20207;-49
2022/09/21 07:38:07;;;;;;;1.93;1.77;;;11.60;99.90;;;;;;5101751;28;20222;-48
2022/09/21 07:40:35;;;;;;;2.30;2.10;;;11.80;99.90;;;;;;5106670;28;20206;-49
2022/09/21 07:43:02;;;;;;;2.67;1.50;;;11.90;99.90;;;;;;5106689;28;20204;-48
2022/09/21 07:45:30;;;;;;;2.90;1.60;;;12.00;99.90;;;;;;5110401;28;20206;-48
2022/09/21 07:48:02;;;;;;;4.73;2.40;;;12.10;99.90;;;;;;5108000;28;20229;-48
2022/09/21 07:50:32;;;;;;;2.10;1.57;;;12.10;99.90;;;;;;5105592;28;20249;-48
2022/09/21 07:52:59;;;;;;;2.43;1.70;;;12.20;99.90;;;;;;5106164;28;20198;-48
2022/09/21 07:55:27;;;;;;;5.73;2.80;;;12.80;99.90;;;;;;5112093;28;20753;-49
2022/09/21 08:00:38;;;;;;;2.27;2.17;;;13.40;99.90;;;;;;5112643;28;20199;-49
2022/09/21 08:03:05;;;;;;;2.33;2.23;;;14.10;99.90;;;;;;5112210;28;20211;-50
2022/09/21 08:05:34;;;;;;;3.67;2.10;;;14.80;99.90;;;;;;5099349;28;20624;-50
2022/09/21 08:08:01;;;;;;;2.17;1.70;;;15.40;99.90;;;;;;5112304;28;20225;-49
2022/09/21 08:10:29;;;;;;;1.70;1.60;;;16.50;99.90;;;;;;5112410;28;20196;-49
2022/09/21 08:12:57;;;;;;;3.00;2.03;;;17.70;99.90;;;;;;5102846;28;20228;-49
2022/09/21 08:15:24;;;;;;;2.03;1.83;;;18.50;99.90;;;;;;5112316;28;20230;-50
2022/09/21 08:17:51;;;;;;;2.40;2.30;;;19.20;99.90;;;;;;5109992;28;20216;-50
2022/09/21 08:20:20;;;;;;;2.25;2.05;;;19.90;99.90;;;;;;5107465;28;20461;-49
2022/09/21 08:22:52;;;;;;;2.73;2.53;;;20.10;99.90;;;;;;5110910;28;20195;-49
2022/09/21 08:25:19;;;;;;;3.30;2.63;;;21.10;99.90;;;;;;5111749;28;20203;-49
2022/09/21 08:27:47;;;;;;;2.77;2.17;;;21.60;99.90;;;;;;5111850;28;20768;-51
2022/09/21 08:30:14;;;;;;;2.47;2.33;;;21.10;99.90;;;;;;5111918;28;20606;-50
2022/09/21 08:32:41;;;;;;;2.40;2.30;;;20.30;99.90;;;;;;5101387;28;20223;-50
2022/09/21 08:35:09;;;;;;;2.47;2.37;;;20.90;99.90;;;;;;5100342;28;20203;-50
2022/09/21 08:37:37;;;;;;;2.70;1.80;;;21.60;99.90;;;;;;5110617;28;20216;-49
2022/09/21 08:40:07;;;;;;;1.23;1.23;;;22.00;99.90;;;;;;5096957;28;20669;-49
2022/09/21 08:42:40;;;;;;;2.07;1.97;;;22.60;99.90;;;;;;5112017;28;20283;-50
2022/09/21 08:45:13;;;;;;;3.23;2.37;;;22.80;99.90;;;;;;5111806;28;20199;-50
2022/09/21 08:47:43;;;;;;;2.27;1.97;;;22.80;99.90;;;;;;5109334;28;20276;-49
2022/09/21 08:50:26;;;;;;;1.90;1.80;;;22.00;99.90;;;;;;5111685;28;20196;-49
2022/09/21 08:53:00;;;;;;;2.07;1.97;;;22.00;99.90;;;;;;5113161;28;20265;-49
2022/09/21 08:55:28;;;;;;;1.87;1.80;;;22.30;99.90;;;;;;5114223;28;20199;-49
2022/09/21 08:57:55;;;;;;;3.13;1.63;;;22.30;99.90;;;;;;5115015;28;20215;-49
2022/09/21 09:00:23;;;;;;;1.70;1.60;;;21.70;99.90;;;;;;5105494;28;20200;-49
2022/09/21 09:03:23;;;;;;;4.97;2.10;;;21.40;99.90;;;;;;5115967;28;20259;-49
2022/09/21 09:05:55;;;;;;;2.87;2.57;;;21.40;99.90;;;;;;5110854;28;20203;-50
2022/09/21 09:08:55;;;;;;;2.20;2.10;;;21.80;99.90;;;;;;5113831;28;20717;-50
2022/09/21 09:11:41;;;;;;;7.00;2.63;;;21.90;99.90;;;;;;5115867;28;20228;-50
2022/09/21 09:14:36;;;;;;;2.30;2.17;;;21.70;99.80;;;;;;5099962;28;20204;-51
2022/09/21 09:17:24;;;;;;;3.63;2.97;;;21.70;99.50;;;;;;5106700;28;20256;-50
2022/09/21 09:19:56;;;;;;;2.43;1.33;;;22.10;99.20;;;;;;5115446;28;20204;-50
2022/09/21 09:22:28;;;;;;;2.20;1.57;;;22.30;98.50;;;;;;5115728;28;20215;-50
2022/09/21 09:25:00;;;;;;;1.60;1.23;;;22.00;97.70;;;;;;5115326;28;20203;-50
2022/09/21 09:27:34;;;;;;;3.10;2.80;;;22.50;97.70;;;;;;5109391;28;20200;-50
2022/09/21 09:30:04;;;;;;;2.17;2.03;;;22.50;97.50;;;;;;5114568;28;20199;-50
2022/09/21 09:32:40;;;;;;;7.13;6.20;;;22.50;97.10;;;;;;5115427;28;20228;-49
2022/09/21 09:35:18;;;;;;;1.40;1.40;;;22.60;96.90;;;;;;5115239;27;20285;-49
2022/09/21 09:37:47;;;;;;;1.70;1.60;;;22.10;98.60;;;;;;5115223;28;20634;-50
2022/09/21 09:40:16;;;;;;;2.67;2.47;;;21.80;99.20;;;;;;5115480;28;20207;-49
2022/09/21 09:42:58;;;;;;;3.07;1.87;;;22.00;99.40;;;;;;5106928;28;20196;-50
2022/09/21 09:45:39;;;;;;;1.97;1.87;;;22.20;98.60;;;;;;5110138;28;20249;-50
2022/09/21 09:48:26;;;;;;;4.43;4.00;;;22.20;98.10;;;;;;5107096;28;20245;-49
2022/09/21 09:50:53;;;;;;;1.57;1.57;;;22.40;97.90;;;;;;5112375;28;20195;-50
2022/09/21 09:53:25;;;;;;;3.60;2.87;;;22.70;97.90;;;;;;5109031;28;20272;-49
2022/09/21 09:55:54;;;;;;;1.58;1.23;;;22.90;97.90;;;;;;5104758;28;20456;-49
2022/09/21 09:58:36;;;;;;;3.30;1.57;;;22.70;98.20;;;;;;5098088;27;20634;-48
2022/09/21 10:01:03;;;;;;;1.23;1.20;;;22.60;96.50;;;;;;5106967;28;20196;-49
2022/09/21 10:03:30;;;;;;;2.97;0.83;;;22.50;98.20;;;;;;5102376;28;20269;-49
2022/09/21 10:05:57;;;;;;;1.53;1.43;;;22.30;96.00;;;;;;5106067;28;20199;-49
2022/09/21 10:08:43;;;;;;;1.50;1.23;;;22.40;96.70;;;;;;5113055;27;20269;-48
2022/09/21 10:11:12;;;;;;;0.90;0.90;;;22.40;96.80;;;;;;5103424;28;20642;-49
2022/09/21 10:13:43;;;;;;;3.70;1.20;;;21.50;95.60;;;;;;5104727;28;20226;-49
2022/09/21 10:16:14;;;;;;;1.80;0.90;;;21.70;97.60;;;;;;5107900;28;20196;-50
2022/09/21 10:18:46;;;;;;;1.10;0.80;;;21.80;96.50;;;;;;5111381;28;20311;-48
2022/09/21 10:21:19;;;;;;;0.90;0.73;;;21.90;96.40;;;;;;5113169;27;20199;-50
2022/09/21 10:23:49;;;;;;;0.93;0.80;;;21.90;99.00;;;;;;5114174;28;20202;-49
2022/09/21 10:26:18;;;;;;;1.50;1.07;;;22.00;97.10;;;;;;5114303;28;20278;-50
2022/09/21 10:29:01;;;;;;;1.47;1.10;;;22.10;97.90;;;;;;5113572;28;20220;-49
2022/09/21 10:31:29;;;;;;;3.03;1.37;;;21.60;97.00;;;;;;5113973;28;20681;-50
2022/09/21 10:34:10;;;;;;;2.57;0.90;;;21.70;97.80;;;;;;5113702;28;20203;-50
2022/09/21 10:36:38;;;;;;;1.03;1.03;;;21.90;99.90;;;;;;5101552;28;20674;-51
2022/09/21 10:39:29;;;;;;;2.37;1.13;;;21.30;97.00;;;;;;5113959;28;20220;-51
2022/09/21 10:42:03;;;;;;;3.17;1.87;;;21.60;96.70;;;;;;5110055;28;20222;-48
2022/09/21 10:44:39;;;;;;;1.03;1.03;;;21.20;97.80;;;;;;5111264;28;20251;-50
2022/09/21 10:47:18;;;;;;;2.60;1.13;;;19.90;99.50;;;;;;5100934;28;20661;-50
2022/09/21 10:49:50;;;;;;;1.37;1.00;;;19.60;99.20;;;;;;5113494;28;20191;-49
2022/09/21 10:52:20;;;;;;;5.13;1.70;;;19.50;99.70;;;;;;5113040;28;20759;-49
2022/09/21 10:54:50;;;;;;;0.80;0.80;;;19.50;99.90;;;;;;5111884;28;20257;-49
2022/09/21 10:57:20;;;;;;;1.00;0.97;;;19.00;99.90;;;;;;5113451;28;20196;-50
2022/09/21 10:59:49;;;;;;;1.60;1.10;;;18.80;99.90;;;;;;5113629;28;20260;-49
2022/09/21 11:02:35;;;;;;;0.87;0.87;;;18.30;99.90;;;;;;5113343;28;20253;-50
2022/09/21 11:05:09;;;;;;;1.43;0.80;;;18.30;99.90;;;;;;5112777;28;20441;-49
2022/09/21 11:07:43;;;;;;;0.97;0.80;;;18.30;99.90;;;;;;5111466;28;20219;-48
2022/09/21 11:10:18;;;;;;;1.07;0.80;;;18.00;99.90;;;;;;5112500;28;20278;-48
2022/09/21 11:12:57;;;;;;;0.87;0.70;;;17.70;99.90;;;;;;5093488;28;20304;-49
2022/09/21 11:15:37;;;;;;;1.40;1.00;;;17.80;99.90;;;;;;5092520;28;20200;-49
2022/09/21 11:18:13;;;;;;;1.07;0.60;;;18.00;99.90;;;;;;5092856;28;20289;-49
2022/09/21 11:20:46;;;;;;;3.40;0.90;;;18.10;99.90;;;;;;5092668;28;20581;-49
2022/09/21 11:23:29;;;;;;;5.00;0.77;;;18.20;99.90;;;;;;5092506;28;20254;-49
2022/09/21 11:26:04;;;;;;;0.50;0.50;;;18.00;99.90;;;;;;5092823;28;20746;-49
2022/09/21 11:28:39;;;;;;;2.10;0.60;;;17.80;99.90;;;;;;5093247;28;20232;-48
2022/09/21 11:31:32;;;;;;;0.90;0.90;;;17.70;99.90;;;;;;5109156;28;20278;-49
2022/09/21 11:34:18;;;;;;;0.43;0.43;;;17.70;99.90;;;;;;5112532;28;20885;-49
2022/09/21 11:36:56;;;;;;;1.43;0.33;;;17.70;99.90;;;;;;5113156;28;20199;-49
2022/09/21 11:39:35;;;;;;;1.53;0.50;;;17.80;99.90;;;;;;5112870;28;20231;-49
2022/09/21 11:42:15;;;;;;;3.70;0.50;;;17.90;99.90;;;;;;5109965;28;20212;-48
2022/09/21 11:44:54;;;;;;;1.27;0.50;;;18.00;99.90;;;;;;5107451;28;20200;-47
2022/09/21 11:47:47;;;;;;;4.40;0.53;;;17.90;99.90;;;;;;5108764;28;20581;-49
2022/09/21 11:50:28;;;;;;;0.77;0.50;;;17.90;99.90;;;;;;5108075;28;20204;-48
2022/09/21 11:53:15;;;;;;;1.20;0.70;;;17.70;99.90;;;;;;5112622;28;20216;-48
2022/09/21 11:56:11;;;;;;;2.03;0.40;;;17.70;99.90;;;;;;5107707;28;20279;-48
2022/09/21 11:58:47;;;;;;;1.23;0.60;;;17.60;99.90;;;;;;5090804;28;20280;-48
2022/09/21 12:01:30;;;;;;;1.17;0.50;;;17.40;99.90;;;;;;5104647;28;20196;-49
2022/09/21 12:04:13;;;;;;;1.30;1.10;;;17.40;99.90;;;;;;5111810;28;20340;-48
2022/09/21 12:07:03;;;;;;;3.27;0.70;;;17.50;99.90;;;;;;5112379;28;20669;-48
2022/09/21 12:09:44;;;;;;;2.20;0.53;;;17.60;99.90;;;;;;5112428;28;20224;-49
2022/09/21 12:12:16;;;;;;;1.33;0.60;;;17.50;99.90;;;;;;5112311;28;20199;-48
2022/09/21 12:14:55;;;;;;;1.37;0.63;;;17.50;99.90;;;;;;5112018;28;20204;-49
2022/09/21 12:17:31;;;;;;;0.40;0.40;;;17.60;99.90;;;;;;5112010;28;20257;-48
2022/09/21 12:20:07;;;;;;;1.03;0.40;;;17.50;99.90;;;;;;5101481;28;20239;-48
2022/09/21 12:22:38;;;;;;;0.43;0.40;;;17.40;99.90;;;;;;5112259;28;20207;-49
2022/09/21 12:25:15;;;;;;;2.57;0.50;;;17.40;99.90;;;;;;5111995;28;20714;-49
2022/09/21 12:27:47;;;;;;;0.60;0.57;;;17.40;99.90;;;;;;5111146;28;20223;-48
2022/09/21 12:30:16;;;;;;;0.40;0.40;;;17.50;99.90;;;;;;5105261;28;20655;-48
2022/09/21 12:32:52;;;;;;;1.70;0.50;;;17.50;99.90;;;;;;5109486;28;20223;-47
2022/09/21 12:35:26;;;;;;;1.10;0.53;;;17.40;99.90;;;;;;5112111;28;20222;-48
2022/09/21 12:37:58;;;;;;;0.30;0.30;;;17.40;99.90;;;;;;5092083;28;20658;-48
2022/09/21 12:40:33;;;;;;;0.50;0.40;;;17.40;99.90;;;;;;5091684;28;20204;-49
2022/09/21 12:43:08;;;;;;;0.40;0.40;;;17.40;99.90;;;;;;5128891;28;20198;-48
2022/09/21 12:45:39;;;;;;;1.93;0.50;;;17.30;99.90;;;;;;5108012;28;20285;-48
2022/09/21 12:48:13;;;;;;;1.23;0.70;;;17.30;99.90;;;;;;5091323;28;20619;-48
2022/09/21 12:50:47;;;;;;;1.10;0.40;;;17.30;99.90;;;;;;5095963;28;20207;-49
2022/09/21 12:53:18;;;;;;;1.33;0.30;;;17.30;99.90;;;;;;5108846;28;20619;-48
2022/09/21 12:55:51;;;;;;;0.37;0.30;;;17.40;99.90;;;;;;5106580;28;20203;-48
2022/09/21 12:58:42;;;;;;;0.40;0.30;;;17.40;99.90;;;;;;5103101;28;20601;-48
2022/09/21 13:01:20;;;;;;;4.00;0.43;;;17.60;99.90;;;;;;5098058;28;20196;-50
2022/09/21 13:03:59;;;;;;;0.30;0.30;;;17.80;99.90;;;;;;5107879;28;20282;-49
2022/09/21 13:07:00;;;;;;;0.30;0.30;;;17.80;99.90;;;;;;5111782;28;20622;-49
2022/09/21 13:09:29;;;;;;;0.63;0.30;;;17.80;99.90;;;;;;5100431;28;20216;-49
2022/09/21 13:12:00;;;;;;;1.07;0.47;;;17.80;99.90;;;;;;5110967;28;20232;-49
2022/09/21 13:14:30;;;;;;;0.37;0.37;;;17.90;99.90;;;;;;5111056;28;20770;-50
2022/09/21 13:17:01;;;;;;;0.77;0.40;;;18.00;99.90;;;;;;5107326;28;20280;-51
2022/09/21 13:19:30;;;;;;;0.60;0.40;;;18.00;99.90;;;;;;5105144;28;20319;-49
2022/09/21 13:22:17;;;;;;;1.37;0.90;;;18.00;99.90;;;;;;5111439;28;20202;-48